sensor_id;sensor_type;location;lat;lon;timestamp;pressure;altitude;pressure_sealevel;temperature;humidity
56668;BME280;42542;48.360;10.958;2024-02-23T00:01:13;94151.66;;;8.41;99.78
56668;BME280;42542;48.360;10.958;2024-02-23T00:04:15;94154.06;;;8.36;98.62
56668;BME280;42542;48.360;10.958;2024-02-23T00:07:17;94157.97;;;8.34;98.03
56668;BME280;42542;48.360;10.958;2024-02-23T00:10:19;94170.66;;;8.32;98.04
56668;BME280;42542;48.360;10.958;2024-02-23T00:13:21;94168.31;;;8.22;97.36
56668;BME280;42542;48.360;10.958;2024-02-23T00:16:23;94178.94;;;8.22;97.33
56668;BME280;42542;48.360;10.958;2024-02-23T00:19:25;94182.22;;;8.17;97.20
56668;BME280;42542;48.360;10.958;2024-02-23T00:22:27;94188.13;;;8.13;97.97
56668;BME280;42542;48.360;10.958;2024-02-23T00:25:29;94194.03;;;8.08;96.53
56668;BME280;42542;48.360;10.958;2024-02-23T00:28:32;94187.84;;;8.01;95.77
56668;BME280;42542;48.360;10.958;2024-02-23T00:31:38;94209.53;;;7.98;95.19
56668;BME280;42542;48.360;10.958;2024-02-23T00:34:42;94208.91;;;7.96;95.04
56668;BME280;42542;48.360;10.958;2024-02-23T00:37:44;94220.69;;;7.87;93.09
56668;BME280;42542;48.360;10.958;2024-02-23T00:40:46;94221.72;;;7.86;92.24
56668;BME280;42542;48.360;10.958;2024-02-23T00:43:48;94232.13;;;7.81;92.04
56668;BME280;42542;48.360;10.958;2024-02-23T00:46:50;94233.72;;;7.75;90.68
56668;BME280;42542;48.360;10.958;2024-02-23T00:49:52;94234.91;;;7.73;90.41
56668;BME280;42542;48.360;10.958;2024-02-23T00:52:54;94243.31;;;7.70;89.51
56668;BME280;42542;48.360;10.958;2024-02-23T00:55:56;94265.31;;;7.64;87.50
56668;BME280;42542;48.360;10.958;2024-02-23T00:58:58;94249.31;;;7.57;88.60
56668;BME280;42542;48.360;10.958;2024-02-23T01:02:00;94259.38;;;7.62;88.59
56668;BME280;42542;48.360;10.958;2024-02-23T01:05:02;94261.41;;;7.60;88.03
56668;BME280;42542;48.360;10.958;2024-02-23T01:08:05;94257.09;;;7.59;88.67
56668;BME280;42542;48.360;10.958;2024-02-23T01:11:07;94260.78;;;7.58;87.86
56668;BME280;42542;48.360;10.958;2024-02-23T01:14:09;94263.19;;;7.53;88.96
56668;BME280;42542;48.360;10.958;2024-02-23T01:17:11;94264.19;;;7.52;87.86
56668;BME280;42542;48.360;10.958;2024-02-23T01:20:13;94261.47;;;7.45;86.96
56668;BME280;42542;48.360;10.958;2024-02-23T01:23:15;94261.84;;;7.42;86.53
56668;BME280;42542;48.360;10.958;2024-02-23T01:26:17;94265.53;;;7.41;88.20
56668;BME280;42542;48.360;10.958;2024-02-23T01:29:18;94271.81;;;7.33;87.10
56668;BME280;42542;48.360;10.958;2024-02-23T01:32:22;94273.25;;;7.36;87.88
56668;BME280;42542;48.360;10.958;2024-02-23T01:35:24;94274.66;;;7.32;87.26
56668;BME280;42542;48.360;10.958;2024-02-23T01:38:27;94282.81;;;7.30;87.37
56668;BME280;42542;48.360;10.958;2024-02-23T01:41:33;94284.81;;;7.28;86.55
56668;BME280;42542;48.360;10.958;2024-02-23T01:44:35;94274.94;;;7.22;85.83
56668;BME280;42542;48.360;10.958;2024-02-23T01:47:37;94296.22;;;7.22;85.72
56668;BME280;42542;48.360;10.958;2024-02-23T01:50:39;94290.91;;;7.22;85.94
56668;BME280;42542;48.360;10.958;2024-02-23T01:53:41;94297.84;;;7.23;86.29
56668;BME280;42542;48.360;10.958;2024-02-23T01:56:43;94298.88;;;7.22;86.50
56668;BME280;42542;48.360;10.958;2024-02-23T01:59:45;94300.69;;;7.22;86.65
56668;BME280;42542;48.360;10.958;2024-02-23T02:02:48;94314.81;;;7.22;87.30
56668;BME280;42542;48.360;10.958;2024-02-23T02:05:50;94317.47;;;7.22;87.39
56668;BME280;42542;48.360;10.958;2024-02-23T02:08:54;94311.25;;;7.15;88.04
56668;BME280;42542;48.360;10.958;2024-02-23T02:11:55;94320.06;;;7.16;87.31
56668;BME280;42542;48.360;10.958;2024-02-23T02:14:58;94338.84;;;7.14;88.34
56668;BME280;42542;48.360;10.958;2024-02-23T02:18:03;94351.94;;;7.16;88.43
56668;BME280;42542;48.360;10.958;2024-02-23T02:21:05;94366.25;;;7.00;89.05
56668;BME280;42542;48.360;10.958;2024-02-23T02:24:07;94362.06;;;6.76;90.20
56668;BME280;42542;48.360;10.958;2024-02-23T02:27:11;94383.09;;;6.63;91.58
56668;BME280;42542;48.360;10.958;2024-02-23T02:30:12;94389.41;;;6.33;91.60
56668;BME280;42542;48.360;10.958;2024-02-23T02:33:15;94392.38;;;6.15;93.64
56668;BME280;42542;48.360;10.958;2024-02-23T02:36:17;94394.72;;;5.95;94.74
56668;BME280;42542;48.360;10.958;2024-02-23T02:39:18;94400.28;;;5.77;95.85
56668;BME280;42542;48.360;10.958;2024-02-23T02:42:20;94401.25;;;5.62;96.97
56668;BME280;42542;48.360;10.958;2024-02-23T02:45:22;94414.56;;;5.54;98.02
56668;BME280;42542;48.360;10.958;2024-02-23T02:48:24;94415.94;;;5.41;98.46
56668;BME280;42542;48.360;10.958;2024-02-23T02:51:26;94408.03;;;5.33;99.73
56668;BME280;42542;48.360;10.958;2024-02-23T02:54:28;94405.91;;;5.29;100.00
56668;BME280;42542;48.360;10.958;2024-02-23T02:57:30;94398.81;;;5.21;100.00
56668;BME280;42542;48.360;10.958;2024-02-23T03:00:32;94403.00;;;5.16;100.00
56668;BME280;42542;48.360;10.958;2024-02-23T03:03:34;94407.63;;;5.14;100.00
56668;BME280;42542;48.360;10.958;2024-02-23T03:06:37;94407.34;;;5.08;100.00
56668;BME280;42542;48.360;10.958;2024-02-23T03:09:39;94402.69;;;5.10;100.00
56668;BME280;42542;48.360;10.958;2024-02-23T03:12:40;94395.25;;;5.06;100.00
56668;BME280;42542;48.360;10.958;2024-02-23T03:15:42;94399.94;;;5.04;100.00
56668;BME280;42542;48.360;10.958;2024-02-23T03:18:44;94400.72;;;5.04;100.00
56668;BME280;42542;48.360;10.958;2024-02-23T03:21:47;94402.56;;;5.04;100.00
56668;BME280;42542;48.360;10.958;2024-02-23T03:24:49;94399.94;;;5.04;100.00
56668;BME280;42542;48.360;10.958;2024-02-23T03:27:51;94375.28;;;5.03;100.00
56668;BME280;42542;48.360;10.958;2024-02-23T03:30:53;94371.78;;;5.03;100.00
56668;BME280;42542;48.360;10.958;2024-02-23T03:33:55;94368.16;;;5.04;100.00
56668;BME280;42542;48.360;10.958;2024-02-23T03:36:58;94362.66;;;5.05;100.00
56668;BME280;42542;48.360;10.958;2024-02-23T03:40:00;94373.09;;;5.07;100.00
56668;BME280;42542;48.360;10.958;2024-02-23T03:43:03;94368.78;;;5.06;100.00
56668;BME280;42542;48.360;10.958;2024-02-23T03:46:06;94362.31;;;5.08;100.00
56668;BME280;42542;48.360;10.958;2024-02-23T03:49:08;94373.75;;;5.09;100.00
56668;BME280;42542;48.360;10.958;2024-02-23T03:52:10;94366.50;;;5.03;100.00
56668;BME280;42542;48.360;10.958;2024-02-23T03:55:12;94366.78;;;5.08;100.00
56668;BME280;42542;48.360;10.958;2024-02-23T03:58:14;94369.44;;;5.08;100.00
56668;BME280;42542;48.360;10.958;2024-02-23T04:01:16;94365.00;;;5.00;100.00
56668;BME280;42542;48.360;10.958;2024-02-23T04:04:18;94375.06;;;5.05;100.00
56668;BME280;42542;48.360;10.958;2024-02-23T04:07:20;94386.31;;;5.07;100.00
56668;BME280;42542;48.360;10.958;2024-02-23T04:10:22;94386.31;;;5.07;100.00
56668;BME280;42542;48.360;10.958;2024-02-23T04:13:23;94385.31;;;5.08;100.00
56668;BME280;42542;48.360;10.958;2024-02-23T04:16:26;94400.22;;;5.09;100.00
56668;BME280;42542;48.360;10.958;2024-02-23T04:19:27;94399.41;;;5.08;100.00
56668;BME280;42542;48.360;10.958;2024-02-23T04:22:29;94401.06;;;5.09;100.00
56668;BME280;42542;48.360;10.958;2024-02-23T04:25:31;94398.41;;;5.09;100.00
56668;BME280;42542;48.360;10.958;2024-02-23T04:28:34;94389.63;;;5.09;100.00
56668;BME280;42542;48.360;10.958;2024-02-23T04:31:39;94379.22;;;5.07;100.00
56668;BME280;42542;48.360;10.958;2024-02-23T04:34:41;94391.44;;;5.08;100.00
56668;BME280;42542;48.360;10.958;2024-02-23T04:37:45;94384.66;;;5.06;100.00
56668;BME280;42542;48.360;10.958;2024-02-23T04:40:48;94389.97;;;5.06;100.00
56668;BME280;42542;48.360;10.958;2024-02-23T04:43:50;94398.06;;;5.04;100.00
56668;BME280;42542;48.360;10.958;2024-02-23T04:46:52;94384.22;;;5.02;100.00
56668;BME280;42542;48.360;10.958;2024-02-23T04:49:53;94375.44;;;5.02;100.00
56668;BME280;42542;48.360;10.958;2024-02-23T04:52:55;94373.78;;;5.01;100.00
56668;BME280;42542;48.360;10.958;2024-02-23T04:55:57;94376.25;;;5.02;100.00
56668;BME280;42542;48.360;10.958;2024-02-23T04:58:59;94374.25;;;5.04;100.00
56668;BME280;42542;48.360;10.958;2024-02-23T05:02:01;94379.06;;;5.01;100.00
56668;BME280;42542;48.360;10.958;2024-02-23T05:05:04;94370.31;;;5.00;100.00
56668;BME280;42542;48.360;10.958;2024-02-23T05:08:07;94373.44;;;5.04;100.00
56668;BME280;42542;48.360;10.958;2024-02-23T05:11:09;94369.97;;;5.03;100.00
56668;BME280;42542;48.360;10.958;2024-02-23T05:14:11;94361.53;;;5.00;99.42
56668;BME280;42542;48.360;10.958;2024-02-23T05:17:13;94367.13;;;5.05;99.18
56668;BME280;42542;48.360;10.958;2024-02-23T05:20:15;94375.28;;;5.03;98.92
56668;BME280;42542;48.360;10.958;2024-02-23T05:23:17;94397.28;;;5.04;98.47
56668;BME280;42542;48.360;10.958;2024-02-23T05:26:19;94391.16;;;5.03;97.63
56668;BME280;42542;48.360;10.958;2024-02-23T05:29:21;94394.31;;;4.99;96.28
56668;BME280;42542;48.360;10.958;2024-02-23T05:32:24;94400.41;;;4.99;96.25
56668;BME280;42542;48.360;10.958;2024-02-23T05:35:26;94393.66;;;4.97;95.72
56668;BME280;42542;48.360;10.958;2024-02-23T05:38:28;94391.03;;;4.97;96.04
56668;BME280;42542;48.360;10.958;2024-02-23T05:41:30;94396.78;;;5.00;96.24
56668;BME280;42542;48.360;10.958;2024-02-23T05:44:32;94400.09;;;5.02;95.61
56668;BME280;42542;48.360;10.958;2024-02-23T05:47:38;94418.47;;;5.04;96.43
56668;BME280;42542;48.360;10.958;2024-02-23T05:50:42;94408.03;;;5.02;95.68
56668;BME280;42542;48.360;10.958;2024-02-23T05:53:43;94415.97;;;5.02;95.61
56668;BME280;42542;48.360;10.958;2024-02-23T05:56:45;94421.75;;;5.06;95.67
56668;BME280;42542;48.360;10.958;2024-02-23T05:59:47;94435.97;;;5.05;94.97
56668;BME280;42542;48.360;10.958;2024-02-23T06:02:49;94441.09;;;5.06;95.25
56668;BME280;42542;48.360;10.958;2024-02-23T06:05:50;94439.28;;;5.07;96.06
56668;BME280;42542;48.360;10.958;2024-02-23T06:08:52;94429.06;;;5.04;96.83
56668;BME280;42542;48.360;10.958;2024-02-23T06:11:54;94427.53;;;5.09;97.21
56668;BME280;42542;48.360;10.958;2024-02-23T06:14:56;94428.34;;;5.10;97.94
56668;BME280;42542;48.360;10.958;2024-02-23T06:18:00;94431.16;;;5.08;97.79
56668;BME280;42542;48.360;10.958;2024-02-23T06:21:01;94429.19;;;5.10;98.41
56668;BME280;42542;48.360;10.958;2024-02-23T06:24:03;94444.88;;;5.12;99.28
56668;BME280;42542;48.360;10.958;2024-02-23T06:27:06;94443.25;;;5.11;99.51
56668;BME280;42542;48.360;10.958;2024-02-23T06:30:08;94448.56;;;5.11;99.58
56668;BME280;42542;48.360;10.958;2024-02-23T06:33:12;94444.25;;;5.10;100.00
56668;BME280;42542;48.360;10.958;2024-02-23T06:36:14;94434.13;;;5.14;99.71
56668;BME280;42542;48.360;10.958;2024-02-23T06:39:18;94427.66;;;5.16;99.74
56668;BME280;42542;48.360;10.958;2024-02-23T06:42:21;94423.03;;;5.18;100.00
56668;BME280;42542;48.360;10.958;2024-02-23T06:45:23;94418.22;;;5.14;100.00
56668;BME280;42542;48.360;10.958;2024-02-23T06:48:27;94418.38;;;5.20;99.76
56668;BME280;42542;48.360;10.958;2024-02-23T06:51:31;94426.50;;;5.19;99.39
56668;BME280;42542;48.360;10.958;2024-02-23T06:54:34;94427.31;;;5.19;99.14
56668;BME280;42542;48.360;10.958;2024-02-23T06:57:36;94438.56;;;5.21;99.97
56668;BME280;42542;48.360;10.958;2024-02-23T07:00:38;94437.09;;;5.19;100.00
56668;BME280;42542;48.360;10.958;2024-02-23T07:03:40;94454.44;;;5.21;99.51
56668;BME280;42542;48.360;10.958;2024-02-23T07:06:44;94459.09;;;5.19;98.40
56668;BME280;42542;48.360;10.958;2024-02-23T07:09:46;94461.41;;;5.22;99.21
56668;BME280;42542;48.360;10.958;2024-02-23T07:12:48;94460.28;;;5.17;99.35
56668;BME280;42542;48.360;10.958;2024-02-23T07:15:50;94465.88;;;5.22;98.33
56668;BME280;42542;48.360;10.958;2024-02-23T07:18:52;94463.59;;;5.19;97.79
56668;BME280;42542;48.360;10.958;2024-02-23T07:21:54;94478.66;;;5.18;98.06
56668;BME280;42542;48.360;10.958;2024-02-23T07:24:56;94470.88;;;5.17;97.58
56668;BME280;42542;48.360;10.958;2024-02-23T07:27:58;94471.34;;;5.20;97.66
56668;BME280;42542;48.360;10.958;2024-02-23T07:31:00;94467.03;;;5.19;98.16
56668;BME280;42542;48.360;10.958;2024-02-23T07:34:02;94474.81;;;5.21;98.34
56668;BME280;42542;48.360;10.958;2024-02-23T07:37:04;94471.16;;;5.22;98.38
56668;BME280;42542;48.360;10.958;2024-02-23T07:40:07;94472.00;;;5.22;98.17
56668;BME280;42542;48.360;10.958;2024-02-23T07:43:09;94472.66;;;5.24;98.27
56668;BME280;42542;48.360;10.958;2024-02-23T07:46:14;94468.19;;;5.25;98.17
56668;BME280;42542;48.360;10.958;2024-02-23T07:49:18;94455.78;;;5.25;98.30
56668;BME280;42542;48.360;10.958;2024-02-23T07:52:22;94465.19;;;5.28;97.75
56668;BME280;42542;48.360;10.958;2024-02-23T07:55:25;94449.13;;;5.29;96.92
56668;BME280;42542;48.360;10.958;2024-02-23T07:58:27;94456.06;;;5.30;97.18
56668;BME280;42542;48.360;10.958;2024-02-23T08:01:29;94458.34;;;5.33;97.98
56668;BME280;42542;48.360;10.958;2024-02-23T08:04:31;94449.41;;;5.34;97.35
56668;BME280;42542;48.360;10.958;2024-02-23T08:07:33;94442.28;;;5.35;96.77
56668;BME280;42542;48.360;10.958;2024-02-23T08:10:35;94453.56;;;5.37;96.41
56668;BME280;42542;48.360;10.958;2024-02-23T08:13:37;94470.94;;;5.39;96.15
56668;BME280;42542;48.360;10.958;2024-02-23T08:16:39;94472.56;;;5.40;95.68
56668;BME280;42542;48.360;10.958;2024-02-23T08:19:40;94469.91;;;5.40;95.37
56668;BME280;42542;48.360;10.958;2024-02-23T08:22:42;94470.75;;;5.41;95.11
56668;BME280;42542;48.360;10.958;2024-02-23T08:25:44;94491.09;;;5.40;94.01
56668;BME280;42542;48.360;10.958;2024-02-23T08:28:46;94493.44;;;5.43;94.30
56668;BME280;42542;48.360;10.958;2024-02-23T08:31:49;94483.81;;;5.42;93.73
56668;BME280;42542;48.360;10.958;2024-02-23T08:34:50;94492.44;;;5.44;94.69
56668;BME280;42542;48.360;10.958;2024-02-23T08:37:54;94490.63;;;5.45;93.92
56668;BME280;42542;48.360;10.958;2024-02-23T08:40:56;94498.56;;;5.45;93.52
56668;BME280;42542;48.360;10.958;2024-02-23T08:43:59;94501.88;;;5.47;93.80
56668;BME280;42542;48.360;10.958;2024-02-23T08:47:01;94513.75;;;5.51;93.90
56668;BME280;42542;48.360;10.958;2024-02-23T08:50:04;94508.16;;;5.46;93.81
56668;BME280;42542;48.360;10.958;2024-02-23T08:53:07;94522.72;;;5.50;92.92
56668;BME280;42542;48.360;10.958;2024-02-23T08:56:11;94509.28;;;5.52;93.13
56668;BME280;42542;48.360;10.958;2024-02-23T08:59:13;94503.81;;;5.53;92.63
56668;BME280;42542;48.360;10.958;2024-02-23T09:02:15;94507.09;;;5.55;93.22
56668;BME280;42542;48.360;10.958;2024-02-23T09:05:16;94513.06;;;5.57;93.97
56668;BME280;42542;48.360;10.958;2024-02-23T09:08:19;94526.31;;;5.57;93.50
56668;BME280;42542;48.360;10.958;2024-02-23T09:11:22;94527.97;;;5.58;93.48
56668;BME280;42542;48.360;10.958;2024-02-23T09:14:24;94513.94;;;5.49;91.88
56668;BME280;42542;48.360;10.958;2024-02-23T09:17:27;94518.19;;;5.59;92.86
56668;BME280;42542;48.360;10.958;2024-02-23T09:20:30;94512.25;;;5.57;92.74
56668;BME280;42542;48.360;10.958;2024-02-23T09:23:32;94517.22;;;5.60;92.81
56668;BME280;42542;48.360;10.958;2024-02-23T09:26:35;94530.09;;;5.63;93.15
56668;BME280;42542;48.360;10.958;2024-02-23T09:29:37;94522.81;;;5.65;93.14
56668;BME280;42542;48.360;10.958;2024-02-23T09:32:39;94526.44;;;5.64;92.13
56668;BME280;42542;48.360;10.958;2024-02-23T09:35:41;94525.63;;;5.63;91.26
56668;BME280;42542;48.360;10.958;2024-02-23T09:38:43;94513.03;;;5.65;92.13
56668;BME280;42542;48.360;10.958;2024-02-23T09:41:50;94510.22;;;5.67;90.87
56668;BME280;42542;48.360;10.958;2024-02-23T09:44:57;94519.63;;;5.69;91.45
56668;BME280;42542;48.360;10.958;2024-02-23T09:48:00;94524.59;;;5.72;92.53
56668;BME280;42542;48.360;10.958;2024-02-23T09:51:04;94532.38;;;5.74;91.56
56668;BME280;42542;48.360;10.958;2024-02-23T09:54:07;94526.06;;;5.75;90.73
56668;BME280;42542;48.360;10.958;2024-02-23T09:57:09;94534.50;;;5.78;90.86
56668;BME280;42542;48.360;10.958;2024-02-23T10:00:12;94537.16;;;5.78;90.06
56668;BME280;42542;48.360;10.958;2024-02-23T10:03:13;94532.50;;;5.80;89.57
56668;BME280;42542;48.360;10.958;2024-02-23T10:06:15;94536.16;;;5.79;87.55
56668;BME280;42542;48.360;10.958;2024-02-23T10:09:17;94541.63;;;5.78;87.16
56668;BME280;42542;48.360;10.958;2024-02-23T10:12:20;94539.78;;;5.78;87.14
56668;BME280;42542;48.360;10.958;2024-02-23T10:15:22;94538.16;;;5.77;86.18
56668;BME280;42542;48.360;10.958;2024-02-23T10:18:24;94541.78;;;5.76;85.59
56668;BME280;42542;48.360;10.958;2024-02-23T10:21:26;94537.16;;;5.78;84.93
56668;BME280;42542;48.360;10.958;2024-02-23T10:24:28;94534.84;;;5.75;84.04
56668;BME280;42542;48.360;10.958;2024-02-23T10:27:30;94532.66;;;5.79;84.32
56668;BME280;42542;48.360;10.958;2024-02-23T10:30:33;94545.25;;;5.77;81.83
56668;BME280;42542;48.360;10.958;2024-02-23T10:33:35;94540.47;;;5.80;82.46
56668;BME280;42542;48.360;10.958;2024-02-23T10:36:40;94534.81;;;5.83;83.27
56668;BME280;42542;48.360;10.958;2024-02-23T10:39:42;94530.50;;;5.82;81.83
56668;BME280;42542;48.360;10.958;2024-02-23T10:42:46;94540.91;;;5.84;81.50
56668;BME280;42542;48.360;10.958;2024-02-23T10:45:53;94531.81;;;5.86;81.72
56668;BME280;42542;48.360;10.958;2024-02-23T10:48:55;94536.97;;;5.88;82.18
56668;BME280;42542;48.360;10.958;2024-02-23T10:51:58;94529.97;;;5.87;80.63
56668;BME280;42542;48.360;10.958;2024-02-23T10:55:00;94525.00;;;5.84;78.94
56668;BME280;42542;48.360;10.958;2024-02-23T10:58:09;94510.75;;;5.85;79.72
56668;BME280;42542;48.360;10.958;2024-02-23T11:01:16;94528.19;;;5.87;81.17
56668;BME280;42542;48.360;10.958;2024-02-23T11:04:20;94531.97;;;5.93;82.71
56668;BME280;42542;48.360;10.958;2024-02-23T11:07:23;94528.16;;;5.96;81.79
56668;BME280;42542;48.360;10.958;2024-02-23T11:10:27;94526.94;;;5.98;82.92
56668;BME280;42542;48.360;10.958;2024-02-23T11:13:30;94532.75;;;6.02;81.87
56668;BME280;42542;48.360;10.958;2024-02-23T11:16:38;94526.44;;;6.03;80.03
56668;BME280;42542;48.360;10.958;2024-02-23T11:19:46;94520.31;;;6.02;79.76
56668;BME280;42542;48.360;10.958;2024-02-23T11:22:51;94517.66;;;6.02;79.28
56668;BME280;42542;48.360;10.958;2024-02-23T11:26:04;94521.97;;;6.03;78.31
56668;BME280;42542;48.360;10.958;2024-02-23T11:29:11;94516.66;;;6.03;77.14
56668;BME280;42542;48.360;10.958;2024-02-23T11:32:17;94514.00;;;6.03;77.75
56668;BME280;42542;48.360;10.958;2024-02-23T11:35:25;94510.81;;;6.08;79.14
56668;BME280;42542;48.360;10.958;2024-02-23T11:38:29;94519.06;;;6.13;81.50
56668;BME280;42542;48.360;10.958;2024-02-23T11:41:31;94513.75;;;6.13;79.81
56668;BME280;42542;48.360;10.958;2024-02-23T11:44:33;94512.59;;;6.15;81.81
56668;BME280;42542;48.360;10.958;2024-02-23T11:47:36;94513.25;;;6.17;80.75
56668;BME280;42542;48.360;10.958;2024-02-23T11:50:38;94513.06;;;6.19;80.17
56668;BME280;42542;48.360;10.958;2024-02-23T11:53:40;94512.06;;;6.20;80.38
56668;BME280;42542;48.360;10.958;2024-02-23T11:56:42;94507.22;;;6.23;81.30
56668;BME280;42542;48.360;10.958;2024-02-23T11:59:44;94503.84;;;6.30;81.77
56668;BME280;42542;48.360;10.958;2024-02-23T12:02:48;94497.22;;;6.34;82.19
56668;BME280;42542;48.360;10.958;2024-02-23T12:05:51;94498.66;;;6.36;81.17
56668;BME280;42542;48.360;10.958;2024-02-23T12:08:53;94493.19;;;6.38;80.96
56668;BME280;42542;48.360;10.958;2024-02-23T12:11:55;94484.69;;;6.42;82.06
56668;BME280;42542;48.360;10.958;2024-02-23T12:14:58;94485.00;;;6.47;82.99
56668;BME280;42542;48.360;10.958;2024-02-23T12:18:03;94476.66;;;6.50;82.56
56668;BME280;42542;48.360;10.958;2024-02-23T12:21:06;94479.78;;;6.54;82.61
56668;BME280;42542;48.360;10.958;2024-02-23T12:24:09;94482.72;;;6.59;83.07
56668;BME280;42542;48.360;10.958;2024-02-23T12:27:10;94479.06;;;6.60;82.12
56668;BME280;42542;48.360;10.958;2024-02-23T12:30:14;94476.84;;;6.63;83.40
56668;BME280;42542;48.360;10.958;2024-02-23T12:33:16;94477.88;;;6.62;83.07
56668;BME280;42542;48.360;10.958;2024-02-23T12:36:19;94472.03;;;6.67;83.19
56668;BME280;42542;48.360;10.958;2024-02-23T12:39:20;94479.59;;;6.70;84.24
56668;BME280;42542;48.360;10.958;2024-02-23T12:42:23;94487.22;;;6.73;84.55
56668;BME280;42542;48.360;10.958;2024-02-23T12:45:25;94485.22;;;6.75;84.44
56668;BME280;42542;48.360;10.958;2024-02-23T12:48:27;94479.91;;;6.75;84.47
56668;BME280;42542;48.360;10.958;2024-02-23T12:51:29;94481.56;;;6.76;84.44
56668;BME280;42542;48.360;10.958;2024-02-23T12:54:31;94493.00;;;6.77;84.94
56668;BME280;42542;48.360;10.958;2024-02-23T12:57:33;94487.22;;;6.73;85.21
56668;BME280;42542;48.360;10.958;2024-02-23T13:00:35;94494.63;;;6.78;85.00
56668;BME280;42542;48.360;10.958;2024-02-23T13:03:38;94487.31;;;6.80;84.61
56668;BME280;42542;48.360;10.958;2024-02-23T13:06:42;94482.66;;;6.82;85.41
56668;BME280;42542;48.360;10.958;2024-02-23T13:09:45;94474.69;;;6.82;85.32
56668;BME280;42542;48.360;10.958;2024-02-23T13:12:47;94472.50;;;6.85;84.87
56668;BME280;42542;48.360;10.958;2024-02-23T13:15:51;94463.53;;;6.86;83.83
56668;BME280;42542;48.360;10.958;2024-02-23T13:18:53;94464.53;;;6.85;83.55
56668;BME280;42542;48.360;10.958;2024-02-23T13:21:56;94467.81;;;6.87;84.11
56668;BME280;42542;48.360;10.958;2024-02-23T13:24:58;94477.28;;;6.90;83.95
56668;BME280;42542;48.360;10.958;2024-02-23T13:28:00;94476.28;;;6.91;84.43
56668;BME280;42542;48.360;10.958;2024-02-23T13:31:02;94475.63;;;6.89;82.17
56668;BME280;42542;48.360;10.958;2024-02-23T13:34:05;94469.84;;;6.85;82.42
56668;BME280;42542;48.360;10.958;2024-02-23T13:37:07;94474.63;;;6.90;83.18
56668;BME280;42542;48.360;10.958;2024-02-23T13:40:09;94472.78;;;6.90;82.67
56668;BME280;42542;48.360;10.958;2024-02-23T13:43:12;94470.13;;;6.90;82.14
56668;BME280;42542;48.360;10.958;2024-02-23T13:46:14;94454.47;;;6.81;82.16
56668;BME280;42542;48.360;10.958;2024-02-23T13:49:16;94453.34;;;6.75;81.75
56668;BME280;42542;48.360;10.958;2024-02-23T13:52:17;94448.78;;;6.69;81.87
56668;BME280;42542;48.360;10.958;2024-02-23T13:55:20;94435.84;;;6.66;81.44
56668;BME280;42542;48.360;10.958;2024-02-23T13:58:26;94407.56;;;6.58;81.20
56668;BME280;42542;48.360;10.958;2024-02-23T14:01:30;94432.91;;;6.46;81.23
56668;BME280;42542;48.360;10.958;2024-02-23T14:04:32;94432.81;;;6.40;81.14
56668;BME280;42542;48.360;10.958;2024-02-23T14:07:35;94433.97;;;6.37;81.11
56668;BME280;42542;48.360;10.958;2024-02-23T14:10:36;94433.53;;;6.34;81.71
56668;BME280;42542;48.360;10.958;2024-02-23T14:13:38;94440.47;;;6.35;82.22
56668;BME280;42542;48.360;10.958;2024-02-23T14:16:40;94450.44;;;6.33;82.38
56668;BME280;42542;48.360;10.958;2024-02-23T14:19:42;94467.81;;;6.35;82.42
56668;BME280;42542;48.360;10.958;2024-02-23T14:22:44;94466.16;;;6.34;82.34
56668;BME280;42542;48.360;10.958;2024-02-23T14:25:46;94435.34;;;6.33;82.24
56668;BME280;42542;48.360;10.958;2024-02-23T14:28:48;94428.41;;;6.32;81.02
56668;BME280;42542;48.360;10.958;2024-02-23T14:31:51;94411.53;;;6.25;81.69
56668;BME280;42542;48.360;10.958;2024-02-23T14:34:52;94437.53;;;6.30;82.38
56668;BME280;42542;48.360;10.958;2024-02-23T14:37:54;94459.59;;;6.30;81.89
56668;BME280;42542;48.360;10.958;2024-02-23T14:40:57;94481.63;;;6.31;82.31
56668;BME280;42542;48.360;10.958;2024-02-23T14:43:59;94479.97;;;6.30;82.59
56668;BME280;42542;48.360;10.958;2024-02-23T14:47:01;94463.88;;;6.31;82.42
56668;BME280;42542;48.360;10.958;2024-02-23T14:50:03;94457.09;;;6.28;82.33
56668;BME280;42542;48.360;10.958;2024-02-23T14:53:06;94467.72;;;6.28;81.66
56668;BME280;42542;48.360;10.958;2024-02-23T14:56:09;94447.69;;;6.26;81.15
56668;BME280;42542;48.360;10.958;2024-02-23T14:59:11;94465.22;;;6.27;81.25
56668;BME280;42542;48.360;10.958;2024-02-23T15:02:21;94449.31;;;6.27;80.91
56668;BME280;42542;48.360;10.958;2024-02-23T15:05:23;94425.81;;;6.24;80.08
56668;BME280;42542;48.360;10.958;2024-02-23T15:08:25;94412.72;;;6.22;79.90
56668;BME280;42542;48.360;10.958;2024-02-23T15:11:27;94402.00;;;6.16;79.42
56668;BME280;42542;48.360;10.958;2024-02-23T15:14:29;94405.81;;;6.13;79.93
56668;BME280;42542;48.360;10.958;2024-02-23T15:17:31;94410.13;;;6.14;80.24
56668;BME280;42542;48.360;10.958;2024-02-23T15:20:34;94425.41;;;6.12;79.93
56668;BME280;42542;48.360;10.958;2024-02-23T15:23:36;94427.03;;;6.13;79.62
56668;BME280;42542;48.360;10.958;2024-02-23T15:26:38;94423.56;;;6.13;79.76
56668;BME280;42542;48.360;10.958;2024-02-23T15:29:40;94412.22;;;6.04;79.40
56668;BME280;42542;48.360;10.958;2024-02-23T15:32:41;94411.03;;;6.07;78.93
56668;BME280;42542;48.360;10.958;2024-02-23T15:35:43;94418.16;;;6.06;78.43
56668;BME280;42542;48.360;10.958;2024-02-23T15:38:45;94422.00;;;6.04;78.06
56668;BME280;42542;48.360;10.958;2024-02-23T15:41:47;94416.22;;;6.00;77.65
56668;BME280;42542;48.360;10.958;2024-02-23T15:44:49;94418.75;;;5.94;77.67
56668;BME280;42542;48.360;10.958;2024-02-23T15:47:51;94414.00;;;5.89;78.12
56668;BME280;42542;48.360;10.958;2024-02-23T15:50:53;94416.81;;;5.87;78.44
56668;BME280;42542;48.360;10.958;2024-02-23T15:54:02;94437.50;;;5.84;77.97
56668;BME280;42542;48.360;10.958;2024-02-23T15:57:03;94435.25;;;5.81;78.44
56668;BME280;42542;48.360;10.958;2024-02-23T16:00:08;94453.31;;;5.77;77.80
56668;BME280;42542;48.360;10.958;2024-02-23T16:03:11;94451.84;;;5.75;78.04